createdAt,value
2022-08-20T00:02:15.876Z,1.85
2022-08-20T00:04:44.415Z,2.17
2022-08-20T00:07:14.437Z,2.63
2022-08-20T00:09:43.121Z,1.80
2022-08-20T00:12:13.632Z,2.60
2022-08-20T00:14:42.259Z,2.72
2022-08-20T00:17:10.671Z,3.03
2022-08-20T00:19:38.898Z,2.42
2022-08-20T00:22:07.321Z,2.13
2022-08-20T00:24:36.938Z,2.40
2022-08-20T00:27:05.425Z,2.38
2022-08-20T00:29:33.753Z,2.33
2022-08-20T00:32:01.988Z,2.63
2022-08-20T00:34:30.403Z,2.42
2022-08-20T00:36:58.677Z,2.63
2022-08-20T00:39:27.142Z,2.45
2022-08-20T00:41:56.824Z,2.22
2022-08-20T00:44:25.219Z,2.60
2022-08-20T00:46:54.517Z,2.28
2022-08-20T00:49:26.054Z,2.45
2022-08-20T00:51:58.891Z,2.50
2022-08-20T00:54:31.497Z,2.50
2022-08-20T00:57:04.114Z,2.50
2022-08-20T00:59:35.384Z,1.98
2022-08-20T01:02:04.857Z,2.83
2022-08-20T01:04:35.815Z,2.22
2022-08-20T01:07:06.465Z,2.72
2022-08-20T01:09:57.952Z,2.17
2022-08-20T01:12:25.320Z,2.58
2022-08-20T01:14:54.442Z,2.75
2022-08-20T01:17:25.952Z,2.80
2022-08-20T01:20:00.728Z,2.35
2022-08-20T01:22:54.022Z,2.63
2022-08-20T01:25:29.918Z,2.95
2022-08-20T01:28:00.215Z,2.78
2022-08-20T01:30:30.188Z,2.63
2022-08-20T01:32:58.608Z,2.63
2022-08-20T01:35:27.570Z,2.65
2022-08-20T01:37:56.298Z,3.28
2022-08-20T01:40:36.956Z,2.90
2022-08-20T01:43:09.096Z,2.70
2022-08-20T01:45:40.059Z,2.92
2022-08-20T01:48:08.584Z,2.55
2022-08-20T01:50:42.046Z,2.90
2022-08-20T01:53:20.264Z,3.00
2022-08-20T01:55:48.997Z,2.45
2022-08-20T01:58:18.586Z,2.13
2022-08-20T02:00:46.910Z,2.65
2022-08-20T02:03:15.137Z,2.58
2022-08-20T02:05:43.405Z,2.75
2022-08-20T02:08:11.615Z,2.40
2022-08-20T02:10:40.657Z,2.80
2022-08-20T02:13:10.104Z,2.38
2022-08-20T02:15:43.071Z,2.58
2022-08-20T02:18:14.421Z,2.70
2022-08-20T02:20:43.436Z,2.60
2022-08-20T02:23:12.409Z,2.60
2022-08-20T02:25:43.728Z,2.35
2022-08-20T02:28:17.365Z,2.28
2022-08-20T02:30:50.630Z,2.33
2022-08-20T02:33:24.043Z,1.77
2022-08-20T02:35:57.091Z,1.88
2022-08-20T02:38:26.580Z,1.90
2022-08-20T02:40:54.872Z,2.22
2022-08-20T02:43:23.173Z,1.73
2022-08-20T02:45:52.798Z,2.53
2022-08-20T02:48:23.379Z,2.30
2022-08-20T02:50:54.320Z,2.10
2022-08-20T02:53:23.257Z,2.08
2022-08-20T02:55:51.820Z,1.80
2022-08-20T02:58:21.397Z,2.30
2022-08-20T03:00:50.535Z,2.42
2022-08-20T03:03:22.887Z,2.28
2022-08-20T03:05:53.987Z,2.42
2022-08-20T03:08:22.956Z,2.20
2022-08-20T03:10:52.461Z,1.85
2022-08-20T03:13:21.826Z,2.00
2022-08-20T03:15:55.278Z,2.30
2022-08-20T03:18:33.584Z,2.08
2022-08-20T03:21:02.182Z,2.03
2022-08-20T03:23:30.600Z,1.98
2022-08-20T03:25:58.851Z,2.28
2022-08-20T03:28:27.705Z,2.20
2022-08-20T03:30:56.692Z,2.20
2022-08-20T03:33:25.020Z,1.75
2022-08-20T03:35:55.008Z,1.88
2022-08-20T03:38:32.350Z,2.20
2022-08-20T03:41:02.259Z,2.33
2022-08-20T03:43:31.472Z,2.22
2022-08-20T03:45:59.686Z,2.25
2022-08-20T03:48:28.410Z,2.00
2022-08-20T03:51:00.928Z,1.77
2022-08-20T03:53:31.840Z,1.70
2022-08-20T03:56:03.798Z,1.88
2022-08-20T03:58:35.449Z,1.83
2022-08-20T04:01:07.121Z,2.80
2022-08-20T04:03:35.977Z,1.70
2022-08-20T04:06:06.261Z,2.03
2022-08-20T04:08:35.120Z,1.85
2022-08-20T04:11:03.324Z,1.70
2022-08-20T04:13:32.212Z,2.25
2022-08-20T04:16:03.713Z,2.28
2022-08-20T04:18:32.339Z,2.05
2022-08-20T04:21:00.545Z,2.67
2022-08-20T04:23:31.396Z,2.05
2022-08-20T04:26:01.574Z,2.70
2022-08-20T04:28:30.374Z,2.30
2022-08-20T04:31:01.506Z,2.00
2022-08-20T04:33:33.935Z,1.88
2022-08-20T04:36:06.284Z,2.17
2022-08-20T04:38:47.926Z,2.15
2022-08-20T04:41:23.208Z,1.70
2022-08-20T04:43:53.227Z,1.95
2022-08-20T04:46:23.726Z,1.88
2022-08-20T04:48:52.175Z,2.00
2022-08-20T04:51:23.319Z,1.88
2022-08-20T04:53:54.623Z,1.98
2022-08-20T04:56:26.131Z,2.00
2022-08-20T04:58:55.961Z,2.03
2022-08-20T05:01:26.381Z,2.28
2022-08-20T05:03:55.901Z,1.25
2022-08-20T05:06:29.850Z,1.73
2022-08-20T05:09:01.700Z,1.90
2022-08-20T05:11:34.774Z,1.73
2022-08-20T05:14:06.863Z,1.67
2022-08-20T05:16:39.316Z,1.55
2022-08-20T05:19:09.151Z,1.50
2022-08-20T05:21:37.841Z,1.60
2022-08-20T05:24:08.552Z,1.63
2022-08-20T05:26:37.362Z,1.67
2022-08-20T05:29:07.114Z,2.00
2022-08-20T05:31:36.332Z,1.77
2022-08-20T05:34:10.460Z,2.08
2022-08-20T05:36:41.174Z,1.80
2022-08-20T05:39:11.578Z,1.60
2022-08-20T05:41:40.893Z,1.63
2022-08-20T05:44:13.566Z,1.67
2022-08-20T05:46:43.588Z,1.75
2022-08-20T05:49:13.819Z,1.50
2022-08-20T05:51:41.998Z,1.70
2022-08-20T05:54:11.627Z,1.55
2022-08-20T05:56:39.993Z,1.95
2022-08-20T05:59:09.440Z,1.60
2022-08-20T06:01:40.627Z,1.75
2022-08-20T06:04:28.497Z,1.73
2022-08-20T06:06:59.781Z,2.20
2022-08-20T06:09:31.759Z,2.15
2022-08-20T06:12:02.800Z,2.35
2022-08-20T06:14:31.853Z,3.33
2022-08-20T06:17:11.017Z,2.80
2022-08-20T06:19:44.256Z,2.92
2022-08-20T06:22:18.309Z,2.97
2022-08-20T06:24:55.342Z,2.78
2022-08-20T06:27:24.082Z,2.58
2022-08-20T06:29:53.512Z,2.33
2022-08-20T06:32:32.340Z,1.85
2022-08-20T06:35:03.667Z,2.00
2022-08-20T06:37:33.203Z,1.98
2022-08-20T06:40:06.906Z,2.15
2022-08-20T06:42:35.938Z,1.42
2022-08-20T06:45:05.965Z,1.45
2022-08-20T06:47:34.951Z,1.50
2022-08-20T06:50:03.447Z,1.30
2022-08-20T06:52:51.706Z,1.80
2022-08-20T06:55:24.544Z,1.35
2022-08-20T06:58:01.216Z,1.48
2022-08-20T07:00:32.586Z,1.40
2022-08-20T07:03:01.818Z,1.25
2022-08-20T07:05:30.882Z,1.45
2022-08-20T07:07:59.612Z,1.27
2022-08-20T07:10:30.421Z,1.23
2022-08-20T07:12:59.482Z,1.15
2022-08-20T07:15:28.437Z,1.20
2022-08-20T07:18:01.372Z,1.38
2022-08-20T07:20:32.978Z,1.00
2022-08-20T07:23:02.441Z,1.48
2022-08-20T07:25:33.805Z,1.20
2022-08-20T07:28:04.028Z,1.40
2022-08-20T07:30:56.903Z,1.02
2022-08-20T07:33:28.401Z,1.05
2022-08-20T07:35:57.280Z,1.23
2022-08-20T07:38:27.710Z,1.10
2022-08-20T07:40:59.448Z,1.33
2022-08-20T07:43:28.557Z,1.08
2022-08-20T07:46:00.916Z,1.10
2022-08-20T07:48:32.293Z,1.40
2022-08-20T07:51:03.620Z,1.05
2022-08-20T07:53:35.683Z,1.20
2022-08-20T07:56:07.981Z,0.82
2022-08-20T07:58:37.859Z,0.88
2022-08-20T08:01:07.930Z,0.82
2022-08-20T08:03:40.982Z,0.80
2022-08-20T08:06:28.430Z,1.13
2022-08-20T08:08:59.630Z,0.90
2022-08-20T08:11:29.962Z,0.88
2022-08-20T08:14:00.269Z,0.80
2022-08-20T08:16:31.245Z,0.90
2022-08-20T08:19:02.257Z,1.05
2022-08-20T08:21:32.166Z,1.20
2022-08-20T08:24:00.469Z,1.13
2022-08-20T08:26:30.101Z,0.80
2022-08-20T08:28:58.687Z,0.90
2022-08-20T08:31:27.419Z,0.90
2022-08-20T08:33:55.743Z,1.00
2022-08-20T08:36:24.887Z,1.05
2022-08-20T08:38:54.760Z,0.73
2022-08-20T08:41:31.440Z,0.90
2022-08-20T08:44:08.324Z,0.90
2022-08-20T08:46:41.908Z,0.70
2022-08-20T08:49:14.023Z,1.00
2022-08-20T08:51:46.452Z,0.77
2022-08-20T08:54:17.925Z,1.10
2022-08-20T08:56:49.884Z,1.17
2022-08-20T08:59:22.146Z,1.10
2022-08-20T09:01:56.927Z,0.88
2022-08-20T09:04:31.936Z,0.98
2022-08-20T09:07:05.712Z,1.00
2022-08-20T09:09:37.685Z,1.10
2022-08-20T09:12:08.803Z,0.90
2022-08-20T09:14:39.206Z,0.80
2022-08-20T09:17:08.313Z,0.80
2022-08-20T09:19:36.902Z,0.90
2022-08-20T09:22:09.428Z,1.00
2022-08-20T09:24:38.040Z,0.70
2022-08-20T09:27:06.820Z,0.80
2022-08-20T09:29:35.128Z,0.70
2022-08-20T09:32:10.662Z,0.82
2022-08-20T09:34:40.027Z,0.90
2022-08-20T09:37:08.284Z,0.85
2022-08-20T09:39:36.931Z,1.05
2022-08-20T09:42:10.098Z,0.90
2022-08-20T09:44:38.847Z,1.20
2022-08-20T09:47:08.549Z,1.08
2022-08-20T09:49:37.453Z,0.60
2022-08-20T09:52:09.551Z,0.70
2022-08-20T09:54:39.034Z,0.52
2022-08-20T09:57:16.662Z,0.50
2022-08-20T09:59:47.245Z,0.30
2022-08-20T10:02:16.913Z,0.30
2022-08-20T10:04:45.671Z,0.20
2022-08-20T10:07:16.090Z,0.20
2022-08-20T10:09:44.385Z,0.20
2022-08-20T10:12:12.657Z,0.20
2022-08-20T10:14:40.965Z,0.20
2022-08-20T10:17:09.119Z,0.10
2022-08-20T10:19:38.718Z,0.10
2022-08-20T10:22:07.229Z,0.20
2022-08-20T10:24:36.165Z,0.20
2022-08-20T10:27:04.518Z,0.20
2022-08-20T10:29:33.167Z,0.20
2022-08-20T10:32:12.460Z,0.40
2022-08-20T10:34:43.867Z,0.55
2022-08-20T10:37:16.633Z,0.40
2022-08-20T10:39:46.720Z,0.20
2022-08-20T10:42:15.429Z,0.35
2022-08-20T10:44:43.901Z,0.50
2022-08-20T10:47:22.247Z,0.30
2022-08-20T10:49:54.799Z,0.30
2022-08-20T10:52:24.343Z,0.28
2022-08-20T10:54:53.475Z,0.30
2022-08-20T10:57:23.877Z,0.30
2022-08-20T10:59:53.995Z,0.30
2022-08-20T11:02:22.900Z,0.25
2022-08-20T11:04:53.809Z,0.32
2022-08-20T11:07:54.736Z,0.22
2022-08-20T11:10:23.316Z,0.43
2022-08-20T11:12:51.476Z,0.30
2022-08-20T11:15:20.216Z,0.30
2022-08-20T11:17:48.462Z,0.30
2022-08-20T11:20:20.930Z,0.30
2022-08-20T11:22:49.325Z,0.30
2022-08-20T11:25:17.964Z,0.20
2022-08-20T11:27:48.751Z,0.30
2022-08-20T11:30:19.705Z,0.30
2022-08-20T11:32:47.963Z,0.30
2022-08-20T11:35:41.806Z,0.30
2022-08-20T11:38:07.143Z,0.30
2022-08-20T11:40:35.406Z,0.25
2022-08-20T11:43:19.005Z,0.30
2022-08-20T11:45:50.965Z,0.40
2022-08-20T11:48:19.699Z,0.55
2022-08-20T11:50:50.687Z,0.32
2022-08-20T11:53:18.935Z,0.40
2022-08-20T11:55:48.445Z,0.60
2022-08-20T11:58:17.088Z,0.30
2022-08-20T12:00:45.452Z,0.38
2022-08-20T12:03:13.810Z,0.40
2022-08-20T12:05:44.017Z,0.40
2022-08-20T12:08:25.176Z,0.30
2022-08-20T12:10:58.374Z,0.60
2022-08-20T12:13:30.708Z,0.50
2022-08-20T12:16:09.140Z,0.50
2022-08-20T12:18:37.358Z,0.63
2022-08-20T12:21:05.679Z,0.77
2022-08-20T12:23:35.297Z,0.60
2022-08-20T12:26:03.601Z,0.50
2022-08-20T12:28:31.984Z,0.50
2022-08-20T12:31:00.296Z,0.50
2022-08-20T12:33:28.489Z,0.60
2022-08-20T12:35:57.385Z,0.50
2022-08-20T12:38:25.536Z,0.82
2022-08-20T12:40:55.162Z,0.40
2022-08-20T12:43:25.259Z,0.40
2022-08-20T12:45:53.935Z,0.63
2022-08-20T12:48:22.449Z,0.70
2022-08-20T12:50:52.909Z,0.50
2022-08-20T12:53:21.179Z,0.50
2022-08-20T12:55:49.369Z,0.65
2022-08-20T12:58:19.402Z,0.50
2022-08-20T13:00:51.159Z,0.52
2022-08-20T13:03:21.118Z,0.60
2022-08-20T13:05:51.208Z,0.70
2022-08-20T13:08:19.794Z,0.50
2022-08-20T13:10:48.112Z,0.50
2022-08-20T13:13:20.349Z,0.50
2022-08-20T13:15:51.348Z,0.70
2022-08-20T13:18:20.305Z,0.68
2022-08-20T13:20:52.995Z,0.70
2022-08-20T13:23:21.602Z,0.63
2022-08-20T13:25:49.834Z,0.60
2022-08-20T13:28:19.495Z,0.65
2022-08-20T13:30:47.680Z,0.57
2022-08-20T13:33:16.397Z,3.13
2022-08-20T13:35:44.594Z,1.88
2022-08-20T13:38:13.846Z,1.30
2022-08-20T13:40:42.125Z,0.98
2022-08-20T13:43:11.945Z,0.60
2022-08-20T13:45:42.875Z,0.70
2022-08-20T13:48:14.791Z,0.60
2022-08-20T13:50:46.942Z,0.60
2022-08-20T13:53:15.377Z,0.40
2022-08-20T13:55:43.972Z,0.60
2022-08-20T13:58:12.206Z,0.60
2022-08-20T14:00:42.039Z,0.40
2022-08-20T14:03:10.233Z,0.40
2022-08-20T14:05:39.119Z,0.52
2022-08-20T14:08:10.312Z,0.40
2022-08-20T14:10:39.926Z,0.70
2022-08-20T14:13:15.312Z,0.70
2022-08-20T14:15:45.849Z,0.60
2022-08-20T14:18:17.415Z,0.68
2022-08-20T14:20:46.253Z,0.60
2022-08-20T14:23:15.407Z,0.52
2022-08-20T14:25:47.446Z,0.52
2022-08-20T14:28:18.634Z,0.57
2022-08-20T14:30:53.312Z,0.80
2022-08-20T14:33:22.696Z,0.50
2022-08-20T14:35:51.330Z,0.57
2022-08-20T14:38:19.588Z,0.70
2022-08-20T14:40:50.502Z,0.45
2022-08-20T14:43:19.156Z,0.68
2022-08-20T14:45:48.740Z,0.40
2022-08-20T14:48:16.966Z,0.30
2022-08-20T14:50:45.216Z,0.30
2022-08-20T14:53:13.470Z,0.30
2022-08-20T14:55:42.051Z,0.32
2022-08-20T14:58:11.510Z,0.40
2022-08-20T15:00:41.050Z,0.50
2022-08-20T15:03:11.283Z,0.40
2022-08-20T15:05:40.014Z,0.30
2022-08-20T15:08:11.027Z,0.30
2022-08-20T15:10:40.275Z,0.30
2022-08-20T15:13:08.969Z,0.32
2022-08-20T15:15:37.204Z,0.30
2022-08-20T15:18:05.497Z,0.30
2022-08-20T15:20:37.033Z,0.40
2022-08-20T15:23:05.876Z,0.20
2022-08-20T15:25:37.862Z,0.20
2022-08-20T15:28:08.423Z,0.40
2022-08-20T15:30:38.636Z,0.22
2022-08-20T15:33:07.266Z,0.30
2022-08-20T15:35:37.348Z,0.30
2022-08-20T15:38:05.617Z,0.30
2022-08-20T15:40:34.551Z,0.30
2022-08-20T15:43:04.434Z,0.30
2022-08-20T15:45:33.290Z,0.28
2022-08-20T15:48:12.883Z,0.30
2022-08-20T15:51:21.566Z,0.20
2022-08-20T15:53:57.299Z,0.30
2022-08-20T15:56:58.411Z,0.30
2022-08-20T15:59:51.819Z,0.25
2022-08-20T16:02:40.893Z,0.25
2022-08-20T16:05:19.880Z,0.30
2022-08-20T16:08:01.164Z,0.47
2022-08-20T16:10:38.477Z,0.70
2022-08-20T16:13:13.880Z,0.40
2022-08-20T16:15:49.474Z,0.30
2022-08-20T16:18:23.770Z,0.30
2022-08-20T16:20:55.160Z,0.30
2022-08-20T16:23:32.863Z,0.40
2022-08-20T16:26:13.342Z,0.30
2022-08-20T16:28:50.640Z,0.30
2022-08-20T16:31:22.128Z,0.40
2022-08-20T16:34:03.351Z,0.40
2022-08-20T16:36:38.677Z,0.30
2022-08-20T16:39:13.215Z,0.30
2022-08-20T16:41:44.455Z,0.30
2022-08-20T16:44:18.394Z,0.30
2022-08-20T16:46:54.359Z,0.20
2022-08-20T16:49:24.688Z,0.30
2022-08-20T16:51:54.346Z,0.20
2022-08-20T16:54:29.643Z,0.20
2022-08-20T16:57:03.449Z,0.30
2022-08-20T16:59:32.716Z,0.30
2022-08-20T17:02:07.040Z,0.30
2022-08-20T17:04:50.404Z,0.30
2022-08-20T17:07:33.246Z,0.40
2022-08-20T17:10:15.507Z,0.20
2022-08-20T17:12:44.039Z,0.30
2022-08-20T17:15:22.367Z,0.28
2022-08-20T17:17:50.614Z,0.30
2022-08-20T17:20:21.499Z,0.28
2022-08-20T17:22:52.307Z,0.20
2022-08-20T17:25:31.350Z,0.20
2022-08-20T17:28:00.717Z,0.28
2022-08-20T17:30:38.596Z,0.40
2022-08-20T17:33:09.226Z,0.30
2022-08-20T17:35:43.190Z,0.40
2022-08-20T17:38:30.296Z,0.32
2022-08-20T17:41:03.195Z,0.30
2022-08-20T17:43:34.460Z,0.35
2022-08-20T17:46:07.755Z,0.30
2022-08-20T17:48:44.124Z,0.30
2022-08-20T17:51:17.722Z,0.30
2022-08-20T17:53:51.221Z,0.30
2022-08-20T17:56:23.352Z,0.38
2022-08-20T17:58:57.360Z,0.35
2022-08-20T18:01:31.938Z,0.38
2022-08-20T18:04:00.331Z,0.30
2022-08-20T18:06:34.748Z,0.30
2022-08-20T18:09:06.063Z,0.30
2022-08-20T18:11:46.850Z,0.40
2022-08-20T18:14:41.490Z,0.30
2022-08-20T18:17:17.168Z,0.28
2022-08-20T18:20:13.585Z,0.30
2022-08-20T18:22:49.743Z,0.43
2022-08-20T18:25:33.654Z,0.40
2022-08-20T18:28:08.036Z,0.40
2022-08-20T18:30:36.298Z,0.30
2022-08-20T18:33:08.583Z,0.40
2022-08-20T18:35:45.924Z,0.30
2022-08-20T18:38:27.382Z,0.30
2022-08-20T18:41:07.466Z,0.30
2022-08-20T18:43:37.121Z,0.30
2022-08-20T18:46:22.126Z,0.22
2022-08-20T18:48:57.556Z,0.60
2022-08-20T18:51:33.325Z,0.38
2022-08-20T18:54:01.714Z,0.30
2022-08-20T18:56:42.965Z,0.30
2022-08-20T18:59:17.001Z,0.40
2022-08-20T19:01:48.640Z,0.40
2022-08-20T19:04:23.433Z,0.30
2022-08-20T19:06:57.608Z,0.30
2022-08-20T19:10:04.517Z,0.30
2022-08-20T19:13:26.512Z,0.22
2022-08-20T19:16:03.346Z,0.30
2022-08-20T19:18:39.333Z,0.30
2022-08-20T19:21:15.689Z,0.20
2022-08-20T19:23:52.182Z,0.28
2022-08-20T19:26:25.666Z,0.30
2022-08-20T19:28:59.551Z,0.20
2022-08-20T19:31:32.246Z,0.20
2022-08-20T19:34:19.655Z,0.28
2022-08-20T19:36:56.467Z,0.20
2022-08-20T19:39:27.863Z,0.20
2022-08-20T19:42:01.667Z,0.20
2022-08-20T19:44:42.018Z,0.20
2022-08-20T19:47:20.206Z,0.30
2022-08-20T19:50:05.515Z,0.20
2022-08-20T19:52:44.264Z,0.30
2022-08-20T19:55:22.007Z,0.20
2022-08-20T19:57:55.717Z,0.30
2022-08-20T20:00:27.539Z,0.30
2022-08-20T20:02:58.154Z,0.28
2022-08-20T20:05:26.410Z,0.20
2022-08-20T20:07:59.971Z,0.30
2022-08-20T20:10:37.859Z,0.20
2022-08-20T20:13:10.364Z,0.30
2022-08-20T20:15:39.678Z,0.20
2022-08-20T20:18:10.642Z,0.20
2022-08-20T20:20:56.990Z,0.20
2022-08-20T20:23:45.668Z,0.20
2022-08-20T20:26:20.034Z,0.17
2022-08-20T20:28:51.033Z,0.20
2022-08-20T20:31:25.759Z,0.30
2022-08-20T20:33:58.460Z,0.20
2022-08-20T20:36:38.064Z,0.20
2022-08-20T20:39:13.851Z,0.20
2022-08-20T20:41:54.037Z,0.20
2022-08-20T20:44:26.031Z,0.10
2022-08-20T20:46:58.640Z,0.20
2022-08-20T20:49:30.907Z,0.20
2022-08-20T20:52:04.176Z,0.20
2022-08-20T20:54:42.452Z,0.20
2022-08-20T20:57:34.246Z,0.20
2022-08-20T21:00:11.573Z,0.20
2022-08-20T21:02:40.319Z,0.20
2022-08-20T21:05:11.846Z,0.20
2022-08-20T21:07:50.271Z,0.20
2022-08-20T21:10:21.373Z,0.20
2022-08-20T21:12:52.920Z,0.20
2022-08-20T21:15:24.892Z,0.20
2022-08-20T21:17:53.834Z,0.20
2022-08-20T21:20:23.814Z,0.28
2022-08-20T21:22:52.390Z,0.20
2022-08-20T21:25:21.600Z,0.20
2022-08-20T21:27:52.967Z,0.20
2022-08-20T21:30:23.202Z,0.10
2022-08-20T21:32:51.638Z,0.13
2022-08-20T21:35:20.229Z,0.10
2022-08-20T21:37:51.692Z,0.20
2022-08-20T21:40:21.771Z,0.20
2022-08-20T21:42:51.279Z,0.20
2022-08-20T21:45:20.243Z,0.20
2022-08-20T21:47:49.248Z,0.20
2022-08-20T21:50:19.335Z,0.13
2022-08-20T21:52:55.064Z,0.10
2022-08-20T21:55:37.408Z,0.20
2022-08-20T21:58:08.209Z,0.20
2022-08-20T22:00:50.983Z,0.20
2022-08-20T22:03:20.044Z,0.20
2022-08-20T22:05:49.471Z,0.20
2022-08-20T22:08:18.661Z,0.20
2022-08-20T22:10:48.390Z,0.20
2022-08-20T22:13:17.538Z,0.20
2022-08-20T22:15:46.001Z,0.20
2022-08-20T22:18:14.386Z,0.20
2022-08-20T22:20:42.762Z,0.20
2022-08-20T22:23:11.760Z,0.20
2022-08-20T22:25:40.224Z,0.20
2022-08-20T22:28:10.294Z,0.20
2022-08-20T22:30:42.257Z,0.20
2022-08-20T22:33:22.132Z,0.20
2022-08-20T22:35:52.682Z,0.20
2022-08-20T22:38:21.769Z,0.10
2022-08-20T22:40:50.194Z,0.20
2022-08-20T22:43:19.851Z,0.25
2022-08-20T22:45:50.301Z,0.30
2022-08-20T22:48:20.259Z,0.30
2022-08-20T22:50:49.371Z,0.20
2022-08-20T22:53:18.659Z,0.40
2022-08-20T22:55:47.076Z,0.30
2022-08-20T22:58:16.672Z,0.20
2022-08-20T23:00:47.301Z,0.20
2022-08-20T23:03:18.088Z,0.30
2022-08-20T23:06:00.504Z,0.30
2022-08-20T23:08:29.233Z,0.20
2022-08-20T23:10:57.431Z,0.30
2022-08-20T23:13:25.795Z,0.30
2022-08-20T23:15:55.482Z,0.30
2022-08-20T23:18:23.885Z,0.30
2022-08-20T23:20:56.290Z,0.35
2022-08-20T23:23:25.457Z,0.30
2022-08-20T23:25:54.654Z,0.30
2022-08-20T23:28:25.198Z,0.30
2022-08-20T23:30:55.394Z,0.40
2022-08-20T23:33:24.209Z,0.40
2022-08-20T23:35:52.554Z,0.30
2022-08-20T23:38:21.204Z,0.20
2022-08-20T23:40:49.494Z,0.30
2022-08-20T23:43:18.862Z,0.40
2022-08-20T23:45:47.288Z,0.40
2022-08-20T23:48:17.034Z,0.30
2022-08-20T23:50:45.288Z,0.40
2022-08-20T23:53:13.569Z,0.40
2022-08-20T23:55:41.898Z,0.22
2022-08-20T23:58:10.137Z,0.30
